Time;durP1;ratioP1;P1;durP2;ratioP2;P2;SDS_P1;SDS_P2;PMS_P1;PMS_P2;Temp;Humidity;BMP_temperature;BMP_pressure;BME280_temperature;BME280_humidity;BME280_pressure;Samples;Min_cycle;Max_cycle;Signal;HPM_P1;HPM_P2
2022/10/25 00:00:26;;;;;;;1.05;0.85;;;;;;;28.20;20.13;100495.13;4988448;28;20080;-85
2022/10/25 00:02:52;;;;;;;0.90;0.80;;;;;;;28.17;20.24;100496.56;4989635;28;20049;-85
2022/10/25 00:05:17;;;;;;;1.17;0.90;;;;;;;28.19;20.27;100494.31;4987266;28;20050;-84
2022/10/25 00:07:43;;;;;;;0.90;0.68;;;;;;;28.18;20.32;100495.44;4971775;28;20489;-84
2022/10/25 00:10:08;;;;;;;1.25;0.70;;;;;;;28.15;20.36;100487.81;4989714;28;20065;-84
2022/10/25 00:12:39;;;;;;;1.27;0.80;;;;;;;28.17;20.20;100485.56;4988030;28;20026;-84
2022/10/25 00:15:08;;;;;;;1.27;0.60;;;;;;;28.14;20.45;100472.44;4970513;28;20027;-84
2022/10/25 00:17:33;;;;;;;1.55;0.77;;;;;;;28.13;20.60;100476.31;4971083;28;20031;-84
2022/10/25 00:19:59;;;;;;;1.00;0.80;;;;;;;28.13;20.53;100473.56;4988978;28;20379;-84
2022/10/25 00:22:27;;;;;;;1.48;0.85;;;;;;;28.12;20.35;100473.88;4988246;28;20054;-84
2022/10/25 00:24:53;;;;;;;0.77;0.68;;;;;;;28.12;20.27;100471.94;4988171;28;20502;-85
2022/10/25 00:27:18;;;;;;;1.55;0.85;;;;;;;28.09;20.40;100469.78;4988591;28;20062;-85
2022/10/25 00:29:44;;;;;;;0.70;0.70;;;;;;;28.01;20.24;100451.25;4970854;28;20562;-85
2022/10/25 00:32:09;;;;;;;1.38;1.00;;;;;;;28.14;20.24;100461.44;4988492;28;20057;-85
2022/10/25 00:34:35;;;;;;;1.10;0.70;;;;;;;28.10;20.29;100465.94;4988324;28;20062;-85
2022/10/25 00:37:01;;;;;;;1.00;0.70;;;;;;;28.09;20.45;100464.28;4988227;28;20030;-85
2022/10/25 00:39:26;;;;;;;0.93;0.70;;;;;;;28.09;20.29;100467.03;4987791;28;20033;-84
2022/10/25 00:41:52;;;;;;;0.95;0.70;;;;;;;28.02;20.30;100458.38;4985850;28;20070;-85
2022/10/25 00:44:35;;;;;;;0.75;0.60;;;;;;;28.07;20.42;100466.53;4988863;28;20042;-85
2022/10/25 00:47:19;;;;;;;1.48;0.80;;;;;;;28.02;20.54;100448.19;4987463;28;20033;-85
2022/10/25 00:50:06;;;;;;;0.60;0.60;;;;;;;28.03;20.35;100454.53;4988315;28;20110;-85
2022/10/25 00:52:33;;;;;;;1.70;0.80;;;;;;;28.03;20.38;100460.03;4954871;28;20549;-85
2022/10/25 00:54:59;;;;;;;0.70;0.70;;;;;;;28.01;20.53;100443.84;4987289;28;20104;-85
2022/10/25 00:57:40;;;;;;;1.08;0.80;;;;;;;28.03;20.41;100451.78;4970978;28;20147;-85
2022/10/25 01:00:06;;;;;;;1.23;0.95;;;;;;;28.02;20.28;100452.88;4970610;28;20458;-85
2022/10/25 01:02:32;;;;;;;1.90;0.70;;;;;;;27.99;20.54;100448.00;4987603;28;20023;-85
2022/10/25 01:04:57;;;;;;;0.80;0.70;;;;;;;28.01;20.50;100446.59;4968935;28;20065;-85
2022/10/25 01:07:23;;;;;;;0.60;0.60;;;;;;;28.02;20.31;100444.66;4988044;28;20411;-85
2022/10/25 01:09:49;;;;;;;0.70;0.60;;;;;;;28.00;20.51;100444.16;4970860;28;20037;-85
2022/10/25 01:12:15;;;;;;;1.25;0.70;;;;;;;27.99;20.41;100442.50;4987129;28;20035;-85
2022/10/25 01:14:41;;;;;;;0.52;0.52;;;;;;;27.95;20.36;100445.03;4988072;28;20029;-85
2022/10/25 01:17:25;;;;;;;0.85;0.70;;;;;;;27.97;20.50;100440.06;4987795;28;20023;-85
2022/10/25 01:20:27;;;;;;;1.52;0.70;;;;;;;27.94;20.61;100437.09;4987810;28;20019;-85
2022/10/25 01:23:11;;;;;;;1.00;0.65;;;;;;;27.90;20.34;100437.66;4969921;28;20132;-85
2022/10/25 01:26:03;;;;;;;0.63;0.60;;;;;;;27.90;20.44;100432.19;4986769;28;20476;-85
2022/10/25 01:28:42;;;;;;;0.98;0.73;;;;;;;27.96;20.55;100432.13;4987015;28;20026;-85
2022/10/25 01:31:26;;;;;;;1.25;0.77;;;;;;;27.94;20.51;100423.38;4987071;28;20034;-85
2022/10/25 01:34:15;;;;;;;0.63;0.60;;;;;;;27.94;20.31;100426.13;4987842;28;20394;-84
2022/10/25 01:36:44;;;;;;;1.35;0.60;;;;;;;27.90;20.59;100417.63;4973074;28;20031;-85
2022/10/25 01:39:13;;;;;;;0.65;0.55;;;;;;;27.89;20.44;100416.84;4987926;28;20033;-85
2022/10/25 01:42:04;;;;;;;0.50;0.50;;;;;;;27.91;20.39;100411.88;4987240;28;20423;-85
2022/10/25 01:44:47;;;;;;;1.17;0.73;;;;;;;27.95;20.54;100416.78;4986674;28;20030;-84
2022/10/25 01:47:20;;;;;;;0.70;0.70;;;;;;;27.91;20.34;100414.63;4986118;28;20628;-84
2022/10/25 01:49:56;;;;;;;0.98;0.80;;;;;;;27.90;20.60;100418.44;4971419;28;20033;-85
2022/10/25 01:52:22;;;;;;;0.60;0.60;;;;;;;27.90;20.60;100418.44;4990966;28;20026;-84
2022/10/25 01:54:48;;;;;;;1.67;0.90;;;;;;;27.89;20.54;100416.84;4990081;28;20026;-84
2022/10/25 01:57:36;;;;;;;0.90;0.80;;;;;;;27.90;20.63;100414.91;4991735;28;20109;-84
2022/10/25 02:00:08;;;;;;;0.73;0.70;;;;;;;27.89;20.27;100411.34;4991064;28;20026;-84
2022/10/25 02:02:37;;;;;;;0.70;0.57;;;;;;;27.85;20.46;100406.75;4991652;28;20065;-85
2022/10/25 02:05:06;;;;;;;2.35;0.80;;;;;;;27.83;20.44;100407.06;4988992;28;20026;-85
2022/10/25 02:07:41;;;;;;;0.93;0.60;;;;;;;27.77;20.68;100402.78;4972361;28;20030;-85
2022/10/25 02:10:20;;;;;;;1.02;0.70;;;;;;;27.79;20.45;100403.28;4973459;28;20042;-85
2022/10/25 02:12:51;;;;;;;1.27;0.80;;;;;;;27.81;20.64;100398.31;4974818;28;20138;-85
2022/10/25 02:15:43;;;;;;;1.35;0.90;;;;;;;27.79;20.46;100388.75;4973971;28;20050;-84
2022/10/25 02:18:19;;;;;;;0.57;0.57;;;;;;;27.77;20.42;100386.31;4962221;28;20098;-84
2022/10/25 02:20:45;;;;;;;1.20;0.75;;;;;;;27.82;20.58;100388.13;4989836;28;20482;-84
2022/10/25 02:23:11;;;;;;;1.25;0.70;;;;;;;27.83;20.57;100390.56;4972539;28;20029;-84
2022/10/25 02:25:36;;;;;;;0.70;0.70;;;;;;;27.83;20.61;100389.78;4973862;28;20473;-84
2022/10/25 02:28:05;;;;;;;1.48;0.85;;;;;;;27.82;20.47;100394.47;4989824;28;20026;-85
2022/10/25 02:30:31;;;;;;;1.10;0.80;;;;;;;27.83;20.40;100385.09;4972264;28;20049;-84
2022/10/25 02:32:57;;;;;;;1.50;0.80;;;;;;;27.85;20.25;100388.34;4957348;28;20034;-84
2022/10/25 02:35:22;;;;;;;0.90;0.70;;;;;;;27.79;20.65;100388.75;4990090;28;20415;-85
2022/10/25 02:37:48;;;;;;;2.42;0.70;;;;;;;27.79;20.55;100384.06;4990791;28;20065;-85
2022/10/25 02:40:13;;;;;;;0.70;0.70;;;;;;;27.73;20.53;100368.81;4990895;28;20093;-85
2022/10/25 02:42:39;;;;;;;0.85;0.60;;;;;;;27.82;20.60;100375.22;4972626;28;20118;-85
2022/10/25 02:45:08;;;;;;;1.02;0.70;;;;;;;27.83;20.53;100371.34;4973526;28;20044;-85
2022/10/25 02:47:34;;;;;;;0.80;0.70;;;;;;;27.84;20.41;100377.69;4988671;28;20110;-84
2022/10/25 02:49:59;;;;;;;2.13;0.55;;;;;;;27.85;20.52;100371.06;4973041;28;20030;-84
2022/10/25 02:52:27;;;;;;;1.05;0.70;;;;;;;27.81;20.48;100365.34;4989886;28;20018;-84
2022/10/25 02:54:53;;;;;;;0.63;0.60;;;;;;;27.83;20.61;100365.88;4989566;28;20018;-84
2022/10/25 02:57:18;;;;;;;1.17;0.77;;;;;;;27.82;20.30;100360.66;4971398;28;20033;-85
2022/10/25 02:59:44;;;;;;;1.35;0.65;;;;;;;27.80;20.45;100352.72;4987369;28;20085;-85
2022/10/25 03:02:09;;;;;;;0.82;0.70;;;;;;;27.79;20.62;100361.31;4973129;28;20034;-85
2022/10/25 03:04:35;;;;;;;0.80;0.63;;;;;;;27.77;20.59;100358.03;4989841;28;20029;-85
2022/10/25 03:07:00;;;;;;;0.65;0.60;;;;;;;27.78;20.56;100359.66;4990072;28;20037;-84
2022/10/25 03:09:26;;;;;;;1.23;0.70;;;;;;;27.75;20.61;100360.25;4990186;28;20383;-84
2022/10/25 03:11:52;;;;;;;0.82;0.60;;;;;;;27.74;20.68;100353.97;4989346;28;20042;-84
2022/10/25 03:14:17;;;;;;;0.90;0.70;;;;;;;27.76;20.71;100354.47;4990207;28;20026;-84
2022/10/25 03:16:43;;;;;;;0.93;0.75;;;;;;;27.78;20.65;100349.47;4989472;28;20034;-84
2022/10/25 03:19:09;;;;;;;1.13;0.70;;;;;;;27.80;20.53;100355.47;4989853;28;20088;-85
2022/10/25 03:21:35;;;;;;;0.50;0.50;;;;;;;27.71;20.55;100344.38;4990614;28;20112;-85
2022/10/25 03:24:00;;;;;;;1.15;0.70;;;;;;;27.70;20.80;100352.97;4987191;28;20031;-85
2022/10/25 03:26:26;;;;;;;1.02;0.95;;;;;;;27.69;20.88;100354.06;4989708;28;20125;-85
2022/10/25 03:28:51;;;;;;;1.58;0.70;;;;;;;27.69;20.57;100348.56;4971801;28;20042;-84
2022/10/25 03:31:19;;;;;;;0.60;0.60;;;;;;;27.67;20.69;100351.63;4989344;28;20030;-85
2022/10/25 03:33:45;;;;;;;1.38;0.90;;;;;;;27.66;20.74;100346.44;4989862;28;20034;-84
2022/10/25 03:36:10;;;;;;;2.38;0.70;;;;;;;27.66;20.82;100340.94;4988994;28;20600;-84
2022/10/25 03:38:36;;;;;;;1.38;0.70;;;;;;;27.61;20.78;100327.31;4988788;28;20398;-85
2022/10/25 03:41:02;;;;;;;1.20;0.70;;;;;;;27.66;20.67;100332.69;4971340;28;20104;-84
2022/10/25 03:43:27;;;;;;;1.13;0.70;;;;;;;27.59;20.89;100322.13;4989045;28;20814;-85
2022/10/25 03:45:53;;;;;;;1.00;0.75;;;;;;;27.60;20.85;100325.69;4988313;28;20030;-84
2022/10/25 03:48:18;;;;;;;1.40;0.80;;;;;;;27.57;20.95;100324.34;4988740;28;20482;-84
2022/10/25 03:50:44;;;;;;;1.02;0.80;;;;;;;27.56;20.87;100319.97;4989413;28;20042;-84
2022/10/25 03:53:10;;;;;;;1.27;0.70;;;;;;;27.53;21.04;100324.16;4986596;28;20169;-84
2022/10/25 03:55:35;;;;;;;0.90;0.80;;;;;;;27.59;20.85;100335.03;4971859;28;20554;-84
2022/10/25 03:58:01;;;;;;;1.00;1.00;;;;;;;27.54;20.94;100327.69;4988233;28;20117;-84
2022/10/25 04:00:26;;;;;;;0.95;0.75;;;;;;;27.50;20.88;100319.25;4988398;28;20522;-85
2022/10/25 04:02:56;;;;;;;1.10;0.63;;;;;;;27.51;20.98;100322.81;4971641;28;20042;-84
2022/10/25 04:05:21;;;;;;;0.90;0.80;;;;;;;27.51;21.16;100323.66;4988515;28;20073;-84
2022/10/25 04:07:47;;;;;;;1.17;0.80;;;;;;;27.44;21.11;100328.72;4989367;28;20545;-84
2022/10/25 04:10:13;;;;;;;1.70;0.80;;;;;;;27.44;21.33;100322.41;4985738;28;20281;-84
2022/10/25 04:12:38;;;;;;;0.98;0.80;;;;;;;27.45;21.20;100316.63;4987513;28;20027;-84
2022/10/25 04:15:07;;;;;;;1.33;0.95;;;;;;;27.49;21.16;100314.91;4971653;28;20084;-84
2022/10/25 04:17:33;;;;;;;1.05;0.80;;;;;;;27.46;21.19;100315.50;4970660;28;20041;-84
2022/10/25 04:19:58;;;;;;;0.93;0.60;;;;;;;27.47;21.20;100306.16;4989537;28;20475;-84
2022/10/25 04:22:24;;;;;;;0.70;0.70;;;;;;;27.41;21.33;100310.13;4988364;28;20014;-84
2022/10/25 04:24:49;;;;;;;1.13;0.80;;;;;;;27.38;21.07;100305.22;4987881;28;20089;-85
2022/10/25 04:27:15;;;;;;;2.90;0.80;;;;;;;27.39;21.09;100304.13;4942380;28;20060;-85
2022/10/25 04:29:40;;;;;;;1.85;1.25;;;;;;;27.40;21.23;100305.72;4987926;28;20034;-85
2022/10/25 04:32:06;;;;;;;0.75;0.75;;;;;;;27.37;21.20;100295.34;4971524;28;20057;-85
2022/10/25 04:34:32;;;;;;;1.60;0.98;;;;;;;27.38;21.35;100305.22;4988082;28;20049;-84
2022/10/25 04:36:57;;;;;;;1.17;0.80;;;;;;;27.37;21.17;100295.34;4971404;28;20072;-85
2022/10/25 04:39:24;;;;;;;1.40;0.80;;;;;;;27.38;21.26;100290.69;4987486;28;20065;-85
2022/10/25 04:41:50;;;;;;;0.85;0.70;;;;;;;27.39;21.23;100282.16;4986636;28;20034;-85
2022/10/25 04:44:16;;;;;;;1.45;0.70;;;;;;;27.42;21.38;100287.03;4988053;28;20364;-84
2022/10/25 04:46:41;;;;;;;1.08;0.90;;;;;;;27.46;21.20;100293.56;4987765;28;20101;-84
2022/10/25 04:49:12;;;;;;;0.85;0.77;;;;;;;27.46;21.36;100285.31;4988408;28;20030;-84
2022/10/25 04:51:38;;;;;;;0.95;0.73;;;;;;;27.45;21.39;100291.91;4971530;28;20030;-84
2022/10/25 04:54:03;;;;;;;1.30;0.90;;;;;;;27.45;21.36;100291.91;4970008;28;20034;-84
2022/10/25 04:56:29;;;;;;;1.20;0.90;;;;;;;27.45;21.37;100282.88;4970940;28;20076;-84
2022/10/25 04:58:55;;;;;;;1.60;0.80;;;;;;;27.44;21.33;100284.81;4987870;28;20479;-84
2022/10/25 05:01:20;;;;;;;1.27;0.75;;;;;;;27.48;21.29;100287.75;4988043;28;20113;-84
2022/10/25 05:03:47;;;;;;;1.58;0.88;;;;;;;27.45;21.44;100280.13;4988272;28;20026;-84
2022/10/25 05:06:24;;;;;;;0.70;0.70;;;;;;;27.47;21.24;100289.69;4985660;28;20041;-84
2022/10/25 05:08:50;;;;;;;0.60;0.60;;;;;;;27.45;21.40;100294.66;4988125;28;20033;-85
2022/10/25 05:11:17;;;;;;;0.88;0.73;;;;;;;27.43;21.51;100288.66;4987527;28;20062;-85
2022/10/25 05:13:43;;;;;;;1.27;0.90;;;;;;;27.40;21.46;100280.22;4970713;28;20030;-85
2022/10/25 05:16:15;;;;;;;0.77;0.77;;;;;;;27.41;21.47;100268.94;4971116;28;20026;-85
2022/10/25 05:18:41;;;;;;;1.02;0.82;;;;;;;27.53;21.45;100287.66;4969377;28;20063;-85
2022/10/25 05:21:08;;;;;;;0.90;0.80;;;;;;;27.54;21.39;100279.13;4987923;28;20058;-85
2022/10/25 05:23:33;;;;;;;1.30;0.70;;;;;;;27.53;21.43;100282.19;4987492;28;20550;-84
2022/10/25 05:26:04;;;;;;;1.88;0.60;;;;;;;27.50;21.52;100269.88;4954673;28;20032;-84
2022/10/25 05:28:30;;;;;;;1.95;0.80;;;;;;;27.54;21.35;100276.38;4967946;28;20030;-84
2022/10/25 05:30:55;;;;;;;1.25;0.80;;;;;;;27.52;21.55;100267.63;4986671;28;20549;-84
2022/10/25 05:33:21;;;;;;;1.08;0.90;;;;;;;27.51;21.50;100262.44;4988021;28;20050;-84
2022/10/25 05:35:47;;;;;;;0.77;0.70;;;;;;;27.50;21.26;100263.56;4983342;28;20109;-84
2022/10/25 05:38:12;;;;;;;0.98;0.77;;;;;;;27.47;21.51;100253.19;4986715;28;20062;-84
2022/10/25 05:40:38;;;;;;;1.92;0.80;;;;;;;27.50;21.52;100258.88;4987185;28;20797;-84
2022/10/25 05:43:03;;;;;;;1.23;0.85;;;;;;;27.48;21.71;100258.38;4988048;28;20393;-84
2022/10/25 05:45:29;;;;;;;1.25;0.70;;;;;;;27.48;21.53;100255.63;4970303;28;20483;-85
2022/10/25 05:47:54;;;;;;;0.95;0.70;;;;;;;27.41;21.57;100247.00;4986833;28;20041;-85
2022/10/25 05:50:20;;;;;;;0.98;0.70;;;;;;;27.44;21.62;100257.38;4988184;28;20049;-84
2022/10/25 05:52:46;;;;;;;0.75;0.75;;;;;;;27.45;21.45;100252.69;4987390;28;20133;-84
2022/10/25 05:55:11;;;;;;;0.95;0.82;;;;;;;27.49;21.70;100259.19;4987703;28;20022;-84
2022/10/25 05:57:37;;;;;;;1.52;0.68;;;;;;;27.45;21.56;100258.19;4988125;28;20030;-84
2022/10/25 06:00:03;;;;;;;0.85;0.80;;;;;;;27.43;21.64;100246.69;4986735;28;20070;-84
2022/10/25 06:02:34;;;;;;;0.68;0.65;;;;;;;27.47;21.68;100251.25;4969425;28;20098;-84
2022/10/25 06:05:00;;;;;;;1.92;0.98;;;;;;;27.47;21.59;100251.25;4987080;28;20026;-85
2022/10/25 06:07:25;;;;;;;0.65;0.65;;;;;;;27.41;21.63;100230.53;4987457;28;20254;-84
2022/10/25 06:09:51;;;;;;;1.50;0.90;;;;;;;27.46;21.57;100243.34;4970488;28;20501;-85
2022/10/25 06:12:16;;;;;;;1.20;0.80;;;;;;;27.45;21.79;100248.00;4987172;28;20076;-84
2022/10/25 06:14:42;;;;;;;0.95;0.77;;;;;;;27.45;21.71;100245.25;4987395;28;20026;-84
2022/10/25 06:17:08;;;;;;;1.42;0.80;;;;;;;27.48;21.63;100247.41;4986826;28;20515;-85
2022/10/25 06:19:33;;;;;;;0.98;0.75;;;;;;;27.45;21.71;100248.00;4969964;28;20101;-85
2022/10/25 06:22:00;;;;;;;0.90;0.70;;;;;;;27.47;21.84;100243.03;4987668;28;20033;-84
2022/10/25 06:24:26;;;;;;;3.15;1.15;;;;;;;27.47;21.77;100240.28;4986799;28;20467;-85
2022/10/25 06:26:51;;;;;;;1.58;0.80;;;;;;;27.46;21.85;100249.66;4987965;28;20117;-84
2022/10/25 06:29:17;;;;;;;2.28;0.80;;;;;;;27.46;21.76;100238.66;4986731;28;20098;-85
2022/10/25 06:31:43;;;;;;;1.48;0.98;;;;;;;27.42;21.82;100242.31;4988029;28;20027;-85
2022/10/25 06:34:09;;;;;;;1.35;0.90;;;;;;;27.46;21.75;100235.94;4987409;28;20117;-85
2022/10/25 06:36:35;;;;;;;2.22;0.90;;;;;;;27.41;21.72;100249.75;4988600;28;20026;-84
2022/10/25 06:39:00;;;;;;;0.98;0.85;;;;;;;27.42;21.70;100245.06;4990878;28;20422;-84
2022/10/25 06:41:27;;;;;;;1.48;0.93;;;;;;;27.40;21.86;100239.88;4989697;28;20054;-85
2022/10/25 06:43:53;;;;;;;1.67;0.90;;;;;;;27.42;21.79;100242.31;4957581;28;20499;-85
2022/10/25 06:46:23;;;;;;;0.75;0.73;;;;;;;27.43;21.88;100230.22;4990619;28;20084;-85
2022/10/25 06:48:49;;;;;;;0.60;0.60;;;;;;;27.38;21.85;100233.88;4990536;28;20060;-85
2022/10/25 06:51:15;;;;;;;1.25;0.70;;;;;;;27.46;21.90;100233.19;4973720;28;20101;-85
2022/10/25 06:53:41;;;;;;;0.80;0.80;;;;;;;27.45;21.78;100230.75;4990222;28;20618;-85
2022/10/25 06:56:08;;;;;;;1.38;0.80;;;;;;;27.42;21.92;100231.34;4989902;28;20514;-84
2022/10/25 06:58:34;;;;;;;0.82;0.70;;;;;;;27.39;21.86;100227.28;4991368;28;20026;-84
2022/10/25 07:01:01;;;;;;;1.42;0.90;;;;;;;27.38;21.98;100222.91;4987921;28;20121;-84
2022/10/25 07:03:30;;;;;;;1.55;0.80;;;;;;;27.34;21.85;100214.47;4987441;28;20414;-84
2022/10/25 07:06:08;;;;;;;1.58;0.80;;;;;;;27.37;22.03;100217.72;4987348;28;20113;-84
2022/10/25 07:08:34;;;;;;;2.95;1.08;;;;;;;27.36;21.86;100208.69;4990276;28;20515;-84
2022/10/25 07:11:00;;;;;;;0.88;0.77;;;;;;;27.36;22.05;100216.91;4989590;28;20092;-83
2022/10/25 07:13:26;;;;;;;2.42;0.70;;;;;;;27.33;22.12;100212.03;4989945;28;20026;-84
2022/10/25 07:15:51;;;;;;;1.50;0.90;;;;;;;27.30;22.11;100210.72;4972422;28;20058;-83
2022/10/25 07:18:17;;;;;;;1.08;0.70;;;;;;;27.30;22.20;100213.47;4989393;28;20049;-83
2022/10/25 07:20:47;;;;;;;1.05;0.85;;;;;;;27.30;22.19;100218.13;4989988;28;20114;-83
2022/10/25 07:23:14;;;;;;;1.33;0.80;;;;;;;27.28;22.26;100217.63;4989369;28;20393;-84
2022/10/25 07:25:40;;;;;;;1.90;0.80;;;;;;;27.31;22.30;100214.28;4989916;28;20080;-83
2022/10/25 07:28:06;;;;;;;1.02;0.70;;;;;;;27.27;22.28;100208.56;4989539;28;20430;-84
2022/10/25 07:30:32;;;;;;;0.90;0.70;;;;;;;27.26;22.39;100219.81;4989314;28;20122;-83
2022/10/25 07:32:57;;;;;;;1.63;0.90;;;;;;;27.21;22.36;100198.78;4972836;28;20245;-83
2022/10/25 07:35:23;;;;;;;2.00;0.77;;;;;;;27.21;22.42;100209.75;4988866;28;20035;-83
2022/10/25 07:37:48;;;;;;;1.98;0.82;;;;;;;27.20;22.42;100204.56;4989857;28;20037;-83
2022/10/25 07:40:14;;;;;;;0.70;0.70;;;;;;;27.14;22.54;100209.34;4989834;28;20061;-83
2022/10/25 07:42:39;;;;;;;0.77;0.60;;;;;;;27.14;22.48;100210.16;4988685;28;20037;-83
2022/10/25 07:45:08;;;;;;;1.27;0.80;;;;;;;27.13;22.37;100208.53;4989908;28;20026;-83
2022/10/25 07:47:34;;;;;;;1.00;0.63;;;;;;;27.13;22.43;100200.31;4968427;28;20034;-83
2022/10/25 07:49:59;;;;;;;1.33;0.73;;;;;;;27.17;22.38;100198.56;4987385;28;20553;-83
2022/10/25 07:52:25;;;;;;;0.73;0.60;;;;;;;27.17;22.60;100197.78;4989994;28;20041;-83
2022/10/25 07:54:50;;;;;;;1.17;0.70;;;;;;;27.18;22.48;100199.38;4988630;28;20288;-84
2022/10/25 07:57:16;;;;;;;1.10;0.77;;;;;;;27.15;22.60;100198.06;4989286;28;20089;-83
2022/10/25 07:59:42;;;;;;;0.98;0.68;;;;;;;27.08;22.58;100181.22;4971253;28;20073;-84
2022/10/25 08:02:10;;;;;;;1.10;0.77;;;;;;;27.09;22.69;100180.06;4970694;28;20114;-84
2022/10/25 08:04:36;;;;;;;1.40;0.80;;;;;;;27.14;22.67;100181.91;4956149;28;20038;-84
2022/10/25 08:07:01;;;;;;;1.70;0.65;;;;;;;27.08;22.66;100177.63;4986733;28;20023;-84
2022/10/25 08:09:27;;;;;;;0.85;0.60;;;;;;;27.09;22.59;100185.56;4989014;28;20100;-84
2022/10/25 08:11:53;;;;;;;1.30;0.80;;;;;;;27.06;22.69;100186.19;4988246;28;20030;-84
2022/10/25 08:14:19;;;;;;;1.20;1.00;;;;;;;27.02;22.84;100184.34;4989245;28;20030;-84
2022/10/25 08:16:44;;;;;;;0.80;0.70;;;;;;;27.06;22.80;100174.38;4988500;28;20066;-84
2022/10/25 08:19:10;;;;;;;1.05;0.80;;;;;;;27.06;22.80;100183.44;4989077;28;20109;-84
2022/10/25 08:21:36;;;;;;;0.80;0.80;;;;;;;26.99;22.81;100174.78;4989237;28;20034;-84
2022/10/25 08:24:01;;;;;;;0.85;0.70;;;;;;;27.04;22.83;100182.91;4988613;28;20117;-84
2022/10/25 08:26:28;;;;;;;1.20;0.80;;;;;;;27.00;22.78;100184.66;4969619;28;20054;-84
2022/10/25 08:28:53;;;;;;;1.33;0.90;;;;;;;26.88;22.77;100173.34;4986116;28;20100;-84
2022/10/25 08:31:19;;;;;;;0.77;0.60;;;;;;;26.99;22.94;100185.75;4955048;28;20477;-84
2022/10/25 08:33:45;;;;;;;1.98;0.70;;;;;;;26.89;23.03;100173.06;4988990;28;20464;-84
2022/10/25 08:36:10;;;;;;;1.85;0.63;;;;;;;26.90;22.99;100177.41;4987825;28;20101;-83
2022/10/25 08:38:36;;;;;;;0.50;0.50;;;;;;;26.82;23.05;100174.56;4988895;28;20073;-84
2022/10/25 08:41:20;;;;;;;1.52;0.88;;;;;;;26.93;23.06;100184.25;4987974;28;20381;-83
2022/10/25 08:44:05;;;;;;;1.30;0.80;;;;;;;26.91;23.26;100183.72;4971215;28;20038;-85
2022/10/25 08:46:39;;;;;;;1.95;0.70;;;;;;;26.84;23.11;100183.28;4986878;28;20030;-84
2022/10/25 08:49:38;;;;;;;1.55;0.60;;;;;;;26.85;23.20;100179.44;4987021;28;20034;-84
2022/10/25 08:52:04;;;;;;;1.13;0.70;;;;;;;26.81;23.18;100181.16;4987127;28;20033;-84
2022/10/25 08:54:33;;;;;;;0.60;0.60;;;;;;;26.77;23.29;100179.03;4987731;28;20030;-84
2022/10/25 08:57:21;;;;;;;1.23;0.70;;;;;;;26.79;23.35;100192.44;4953858;28;20498;-83
2022/10/25 08:59:51;;;;;;;0.60;0.47;;;;;;;26.77;23.38;100186.44;4987004;28;20030;-84
2022/10/25 09:02:42;;;;;;;1.08;0.70;;;;;;;26.72;23.27;100187.34;4971103;28;20483;-84
2022/10/25 09:05:34;;;;;;;1.15;0.68;;;;;;;26.77;23.56;100173.53;4964523;28;20100;-84
2022/10/25 09:08:02;;;;;;;1.20;0.73;;;;;;;26.71;23.46;100173.94;4970460;28;20065;-84
2022/10/25 09:10:33;;;;;;;0.90;0.70;;;;;;;26.66;23.62;100172.09;4971148;28;20356;-83
2022/10/25 09:13:10;;;;;;;0.85;0.60;;;;;;;26.64;23.63;100163.34;4987863;28;20034;-84
2022/10/25 09:16:00;;;;;;;1.33;0.68;;;;;;;26.65;23.52;100158.69;4970662;28;20038;-84
2022/10/25 09:18:58;;;;;;;1.30;0.95;;;;;;;26.57;23.73;100154.69;4986193;28;20058;-84
2022/10/25 09:21:44;;;;;;;1.50;0.90;;;;;;;26.56;23.67;100155.78;4986423;28;20045;-84
2022/10/25 09:24:22;;;;;;;0.90;0.60;;;;;;;26.51;23.92;100148.47;4986504;28;20073;-84
2022/10/25 09:27:05;;;;;;;0.80;0.68;;;;;;;26.50;23.80;100148.78;4987736;28;20031;-84
2022/10/25 09:29:42;;;;;;;0.90;0.77;;;;;;;26.47;23.98;100139.22;4970047;28;20033;-84
2022/10/25 09:32:20;;;;;;;1.25;0.65;;;;;;;26.49;24.01;100139.75;4970335;28;20030;-84
2022/10/25 09:34:46;;;;;;;0.82;0.43;;;;;;;26.45;23.98;100137.91;4970822;28;20034;-83
2022/10/25 09:37:38;;;;;;;2.20;0.93;;;;;;;26.45;24.00;100133.22;4987470;28;20515;-84
2022/10/25 09:40:15;;;;;;;0.80;0.70;;;;;;;26.43;24.10;100143.69;4975681;28;20051;-84
2022/10/25 09:42:53;;;;;;;2.50;0.90;;;;;;;26.36;23.99;100130.38;4969697;28;20081;-84
2022/10/25 09:45:18;;;;;;;1.38;0.70;;;;;;;26.36;24.12;100135.84;4987284;28;20038;-84
2022/10/25 09:48:06;;;;;;;0.93;0.63;;;;;;;26.36;24.09;100135.03;4986830;28;20456;-84
2022/10/25 09:50:52;;;;;;;0.77;0.60;;;;;;;26.33;24.17;100130.97;4969603;28;20549;-84
2022/10/25 09:53:18;;;;;;;0.93;0.70;;;;;;;26.31;24.24;100126.91;4987001;28;20038;-84
2022/10/25 09:55:57;;;;;;;1.05;0.70;;;;;;;26.20;24.27;100109.84;4970421;28;20018;-84
2022/10/25 09:58:27;;;;;;;1.63;0.73;;;;;;;26.27;24.18;100126.69;4987260;28;20080;-84
2022/10/25 10:00:56;;;;;;;0.70;0.70;;;;;;;26.26;24.36;100124.25;4968346;28;20026;-84
2022/10/25 10:03:22;;;;;;;0.82;0.70;;;;;;;26.22;24.38;100113.88;4954236;28;20088;-84
2022/10/25 10:05:50;;;;;;;1.27;0.60;;;;;;;26.23;24.30;100122.91;4952730;28;20019;-84
2022/10/25 10:08:15;;;;;;;1.15;0.80;;;;;;;26.25;24.54;100120.72;4969281;28;20114;-84
2022/10/25 10:10:41;;;;;;;1.08;0.70;;;;;;;26.21;24.34;100116.91;4953605;28;20549;-84
2022/10/25 10:13:27;;;;;;;1.02;0.77;;;;;;;26.23;24.35;100111.97;4973502;28;20555;-84
2022/10/25 10:16:01;;;;;;;1.52;0.77;;;;;;;26.17;24.55;100113.16;4990686;28;20037;-84
2022/10/25 10:18:31;;;;;;;0.82;0.70;;;;;;;26.18;24.60;100106.56;4973157;28;20050;-84
2022/10/25 10:21:07;;;;;;;1.45;0.93;;;;;;;26.17;24.50;100105.75;4956110;28;20050;-84
2022/10/25 10:23:42;;;;;;;1.27;0.70;;;;;;;26.14;24.55;100102.81;4990198;28;20018;-84
2022/10/25 10:26:27;;;;;;;1.10;0.70;;;;;;;26.13;24.64;100103.91;4974443;28;20525;-84
2022/10/25 10:29:13;;;;;;;0.70;0.60;;;;;;;26.13;24.58;100104.75;4971784;28;20105;-84
2022/10/25 10:31:41;;;;;;;0.70;0.68;;;;;;;26.09;24.67;100100.16;4972177;28;20089;-84
2022/10/25 10:34:45;;;;;;;1.17;0.70;;;;;;;26.09;24.57;100105.63;4958190;28;20383;-84
2022/10/25 10:37:14;;;;;;;1.33;0.63;;;;;;;26.04;24.83;100096.41;4973766;28;20038;-84
2022/10/25 10:40:06;;;;;;;1.08;0.90;;;;;;;26.07;24.82;100103.19;4990811;28;20027;-84
2022/10/25 10:42:36;;;;;;;0.60;0.60;;;;;;;26.11;24.93;100106.94;4961852;28;20412;-84
2022/10/25 10:45:08;;;;;;;0.85;0.60;;;;;;;26.07;24.84;100099.63;4991096;28;20586;-83
2022/10/25 10:47:49;;;;;;;0.90;0.70;;;;;;;26.05;24.81;100103.47;4989389;28;20121;-84
2022/10/25 10:50:25;;;;;;;0.77;0.70;;;;;;;26.03;24.90;100096.69;4988082;28;20062;-84
2022/10/25 10:52:57;;;;;;;1.10;0.70;;;;;;;25.99;25.08;100096.47;4989950;28;20566;-83
2022/10/25 10:55:29;;;;;;;0.70;0.60;;;;;;;25.99;24.95;100093.72;4989215;28;20081;-84
2022/10/25 10:57:55;;;;;;;1.20;0.80;;;;;;;25.97;24.90;100098.66;4990323;28;20027;-84
2022/10/25 11:00:22;;;;;;;1.95;0.77;;;;;;;25.98;25.15;100103.03;4990200;28;20026;-84
2022/10/25 11:02:47;;;;;;;0.93;0.70;;;;;;;25.99;25.15;100104.69;4990307;28;20027;-84
2022/10/25 11:05:26;;;;;;;0.50;0.50;;;;;;;25.93;25.17;100097.63;4970276;28;20514;-84
2022/10/25 11:08:00;;;;;;;1.17;0.75;;;;;;;25.92;25.10;100092.44;4988992;28;20040;-84
2022/10/25 11:10:26;;;;;;;0.70;0.60;;;;;;;25.92;25.20;100098.72;4972559;28;20038;-84
2022/10/25 11:13:07;;;;;;;1.15;0.70;;;;;;;25.89;25.17;100093.88;4973520;28;20041;-84
2022/10/25 11:15:51;;;;;;;1.00;0.73;;;;;;;25.83;25.43;100079.41;4989760;28;20033;-84
2022/10/25 11:18:18;;;;;;;1.13;0.55;;;;;;;25.75;25.44;100068.34;4973206;28;20026;-84
2022/10/25 11:20:55;;;;;;;0.60;0.60;;;;;;;25.87;25.25;100085.09;4971053;28;20085;-84
2022/10/25 11:23:49;;;;;;;0.80;0.68;;;;;;;25.81;25.41;100086.31;4990896;28;20030;-83
2022/10/25 11:26:30;;;;;;;1.13;0.80;;;;;;;25.79;25.71;100077.59;4961714;28;20027;-84
2022/10/25 11:29:05;;;;;;;1.58;0.95;;;;;;;25.79;25.40;100078.41;4955584;28;20023;-84
2022/10/25 11:32:00;;;;;;;0.80;0.70;;;;;;;25.77;25.57;100077.88;4970945;28;20039;-84
2022/10/25 11:34:25;;;;;;;;;;;;;;;25.77;25.56;100079.81;4953969;28;20042;-82
2022/10/25 11:37:03;;;;;;;1.35;0.73;;;;;;;25.74;25.71;100066.72;4991441;28;20525;-84